createdAt,value
2023-01-04T00:00:59.132Z,1018.04
2023-01-04T00:01:59.222Z,1017.99
2023-01-04T00:02:59.204Z,1017.99
2023-01-04T00:03:59.149Z,1017.98
2023-01-04T00:04:59.013Z,1017.96
2023-01-04T00:05:59.004Z,1017.90
2023-01-04T00:06:58.973Z,1017.87
2023-01-04T00:07:58.963Z,1017.84
2023-01-04T00:08:58.984Z,1017.83
2023-01-04T00:09:58.943Z,1017.84
2023-01-04T00:10:58.955Z,1017.82
2023-01-04T00:11:58.931Z,1017.80
2023-01-04T00:12:58.932Z,1017.74
2023-01-04T00:13:58.945Z,1017.69
2023-01-04T00:14:58.923Z,1017.70
2023-01-04T00:16:03.914Z,1017.66
2023-01-04T00:16:59.859Z,1017.70
2023-01-04T00:17:58.855Z,1017.72
2023-01-04T00:18:58.848Z,1017.63
2023-01-04T00:19:58.855Z,1017.62
2023-01-04T00:20:58.831Z,1017.67
2023-01-04T00:21:58.829Z,1017.68
2023-01-04T00:22:58.790Z,1017.63
2023-01-04T00:23:58.791Z,1017.65
2023-01-04T00:24:58.768Z,1017.66
2023-01-04T00:25:58.775Z,1017.72
2023-01-04T00:26:58.761Z,1017.65
2023-01-04T00:27:59.750Z,1017.66
2023-01-04T00:28:58.736Z,1017.65
2023-01-04T00:29:58.729Z,1017.62
2023-01-04T00:30:58.805Z,1017.52
2023-01-04T00:31:58.706Z,1017.58
2023-01-04T00:32:58.683Z,1017.56
2023-01-04T00:33:58.688Z,1017.56
2023-01-04T00:34:58.687Z,1017.51
2023-01-04T00:35:58.663Z,1017.45
2023-01-04T00:36:58.632Z,1017.38
2023-01-04T00:37:58.639Z,1017.33
2023-01-04T00:38:58.631Z,1017.36
2023-01-04T00:39:58.633Z,1017.30
2023-01-04T00:40:58.624Z,1017.23
2023-01-04T00:42:00.249Z,1017.21
2023-01-04T00:42:58.580Z,1017.26
2023-01-04T00:43:58.556Z,1017.26
2023-01-04T00:44:58.548Z,1017.21
2023-01-04T00:45:58.612Z,1017.23
2023-01-04T00:46:58.588Z,1017.29
2023-01-04T00:47:58.540Z,1017.19
2023-01-04T00:49:00.660Z,1017.24
2023-01-04T00:49:58.491Z,1017.23
2023-01-04T00:50:58.504Z,1017.16
2023-01-04T00:51:58.512Z,1017.15
2023-01-04T00:52:58.470Z,1017.16
2023-01-04T00:53:58.449Z,1017.13
2023-01-04T00:54:58.435Z,1017.02
2023-01-04T00:55:58.444Z,1017.03
2023-01-04T00:56:58.417Z,1016.96
2023-01-04T00:57:58.410Z,1017.00
2023-01-04T00:58:58.406Z,1016.97
2023-01-04T00:59:58.374Z,1016.97
2023-01-04T01:00:58.395Z,1016.95
2023-01-04T01:01:58.606Z,1016.92
2023-01-04T01:02:58.664Z,1016.90
2023-01-04T01:03:58.464Z,1016.90
2023-01-04T01:04:58.324Z,1016.84
2023-01-04T01:05:58.325Z,1016.85
2023-01-04T01:06:58.305Z,1016.84
2023-01-04T01:07:58.296Z,1016.89
2023-01-04T01:08:58.293Z,1016.88
2023-01-04T01:09:58.259Z,1016.84
2023-01-04T01:10:58.272Z,1016.81
2023-01-04T01:11:58.263Z,1016.82
2023-01-04T01:12:58.236Z,1016.80
2023-01-04T01:13:58.238Z,1016.79
2023-01-04T01:15:00.593Z,1016.78
2023-01-04T01:15:58.297Z,1016.78
2023-01-04T01:16:58.973Z,1016.73
2023-01-04T01:17:58.173Z,1016.74
2023-01-04T01:18:58.245Z,1016.74
2023-01-04T01:19:58.174Z,1016.70
2023-01-04T01:20:58.151Z,1016.72
2023-01-04T01:21:58.407Z,1016.71
2023-01-04T01:22:58.179Z,1016.70
2023-01-04T01:24:01.133Z,1016.72
2023-01-04T01:24:58.096Z,1016.65
2023-01-04T01:26:06.881Z,1016.64
2023-01-04T01:26:58.086Z,1016.60
2023-01-04T01:27:58.059Z,1016.63
2023-01-04T01:28:58.082Z,1016.64
2023-01-04T01:29:58.041Z,1016.69
2023-01-04T01:31:00.260Z,1016.60
2023-01-04T01:31:58.136Z,1016.59
2023-01-04T01:32:58.020Z,1016.65
2023-01-04T01:33:57.993Z,1016.57
2023-01-04T01:34:59.042Z,1016.52
2023-01-04T01:35:57.965Z,1016.49
2023-01-04T01:36:57.959Z,1016.58
2023-01-04T01:42:28.584Z,1016.51
2023-01-04T01:43:28.567Z,1016.55
2023-01-04T01:44:28.540Z,1016.51
2023-01-04T01:45:28.531Z,1016.53
2023-01-04T01:46:28.582Z,1016.50
2023-01-04T01:47:28.509Z,1016.44
2023-01-04T01:48:29.548Z,1016.44
2023-01-04T01:49:28.492Z,1016.40
2023-01-04T01:50:28.517Z,1016.43
2023-01-04T01:51:28.461Z,1016.40
2023-01-04T01:52:28.561Z,1016.42
2023-01-04T01:53:28.450Z,1016.44
2023-01-04T01:54:28.469Z,1016.37
2023-01-04T01:55:28.433Z,1016.29
2023-01-04T01:56:28.433Z,1016.38
2023-01-04T01:57:28.405Z,1016.38
2023-01-04T01:58:28.407Z,1016.29
2023-01-04T01:59:29.395Z,1016.36
2023-01-04T02:00:28.381Z,1016.38
2023-01-04T02:01:28.411Z,1016.32
2023-01-04T02:02:28.564Z,1016.38
2023-01-04T02:03:28.575Z,1016.32
2023-01-04T02:04:28.319Z,1016.37
2023-01-04T02:05:28.326Z,1016.34
2023-01-04T02:06:28.428Z,1016.33
2023-01-04T02:07:28.300Z,1016.32
2023-01-04T02:08:28.287Z,1016.34
2023-01-04T02:09:28.261Z,1016.30
2023-01-04T02:10:28.266Z,1016.29
2023-01-04T02:11:28.256Z,1016.27
2023-01-04T02:12:28.248Z,1016.27
2023-01-04T02:13:28.230Z,1016.20
2023-01-04T02:14:28.234Z,1016.27
2023-01-04T02:15:28.203Z,1016.22
2023-01-04T02:16:28.289Z,1016.21
2023-01-04T02:17:28.192Z,1016.19
2023-01-04T02:18:28.168Z,1016.13
2023-01-04T02:19:28.139Z,1016.10
2023-01-04T02:20:28.130Z,1016.08
2023-01-04T02:21:28.146Z,1016.14
2023-01-04T02:22:28.132Z,1016.09
2023-01-04T02:23:28.119Z,1016.09
2023-01-04T02:24:28.102Z,1016.05
2023-01-04T02:25:28.085Z,1016.04
2023-01-04T02:26:28.063Z,1016.05
2023-01-04T02:27:28.071Z,1016.05
2023-01-04T02:28:28.069Z,1016.02
2023-01-04T02:29:28.057Z,1015.94
2023-01-04T02:30:28.020Z,1015.92
2023-01-04T02:31:28.150Z,1015.90
2023-01-04T02:32:28.014Z,1015.91
2023-01-04T02:33:27.998Z,1015.88
2023-01-04T02:34:27.987Z,1015.87
2023-01-04T02:35:27.976Z,1015.86
2023-01-04T02:36:27.953Z,1015.85
2023-01-04T02:37:27.955Z,1015.80
2023-01-04T02:38:27.964Z,1015.84
2023-01-04T02:39:28.933Z,1015.78
2023-01-04T02:40:27.911Z,1015.82
2023-01-04T02:41:27.928Z,1015.75
2023-01-04T02:42:27.884Z,1015.80
2023-01-04T02:43:27.894Z,1015.73
2023-01-04T02:44:27.869Z,1015.71
2023-01-04T02:45:27.868Z,1015.66
2023-01-04T02:46:27.875Z,1015.64
2023-01-04T02:47:27.843Z,1015.66
2023-01-04T02:48:27.854Z,1015.61
2023-01-04T02:49:27.813Z,1015.55
2023-01-04T02:50:27.792Z,1015.61
2023-01-04T02:51:27.808Z,1015.56
2023-01-04T02:52:27.782Z,1015.56
2023-01-04T02:53:27.779Z,1015.55
2023-01-04T02:54:27.767Z,1015.49
2023-01-04T02:55:27.747Z,1015.37
2023-01-04T02:56:27.740Z,1015.43
2023-01-04T02:57:27.724Z,1015.47
2023-01-04T02:58:27.714Z,1015.55
2023-01-04T02:59:27.708Z,1015.43
2023-01-04T03:00:27.681Z,1015.40
2023-01-04T03:01:27.814Z,1015.45
2023-01-04T03:02:27.947Z,1015.38
2023-01-04T03:03:27.882Z,1015.43
2023-01-04T03:04:27.633Z,1015.41
2023-01-04T03:05:27.651Z,1015.43
2023-01-04T03:06:27.625Z,1015.44
2023-01-04T03:07:27.669Z,1015.42
2023-01-04T03:08:27.587Z,1015.50
2023-01-04T03:09:27.574Z,1015.38
2023-01-04T03:10:27.604Z,1015.36
2023-01-04T03:11:28.591Z,1015.45
2023-01-04T03:12:27.560Z,1015.38
2023-01-04T03:13:27.542Z,1015.37
2023-01-04T09:50:51.265Z,1012.78
2023-01-04T09:51:51.216Z,1012.72
2023-01-04T09:52:51.208Z,1012.72
2023-01-04T09:53:51.179Z,1012.82
2023-01-04T09:54:51.208Z,1012.79
2023-01-04T09:55:51.155Z,1012.80
2023-01-04T09:56:51.164Z,1012.66
2023-01-04T09:57:51.159Z,1012.64
2023-01-04T09:58:51.145Z,1012.67
2023-01-04T09:59:51.128Z,1012.73
2023-01-04T10:00:51.181Z,1012.70
2023-01-04T10:01:51.388Z,1012.66
2023-01-04T10:02:51.139Z,1012.53
2023-01-04T10:03:51.193Z,1012.58
2023-01-04T10:04:51.072Z,1012.59
2023-01-04T10:05:51.044Z,1012.57
2023-01-04T10:06:51.070Z,1012.53
2023-01-04T10:07:51.017Z,1012.52
2023-01-04T10:08:51.019Z,1012.51
2023-01-04T10:09:51.030Z,1012.59
2023-01-04T10:10:50.989Z,1012.64
2023-01-04T10:11:50.987Z,1012.54
2023-01-04T10:12:55.129Z,1012.58
2023-01-04T10:13:51.959Z,1012.51
2023-01-04T10:14:50.972Z,1012.54
2023-01-04T10:15:51.016Z,1012.60
2023-01-04T10:21:52.015Z,1012.53
2023-01-04T10:22:50.877Z,1012.59
2023-01-04T10:23:50.855Z,1012.52
2023-01-04T10:24:50.843Z,1012.56
2023-01-04T10:25:50.840Z,1012.54
2023-01-04T10:26:50.821Z,1012.47
2023-01-04T10:27:50.805Z,1012.39
2023-01-04T10:28:50.785Z,1012.51
2023-01-04T10:29:50.786Z,1012.43
2023-01-04T10:30:50.760Z,1012.37
2023-01-04T10:31:50.845Z,1012.23
2023-01-04T10:32:50.739Z,1012.36
2023-01-04T10:33:50.739Z,1012.39
2023-01-04T10:34:50.771Z,1012.37
2023-01-04T10:35:50.714Z,1012.53
2023-01-04T10:36:50.707Z,1012.41
2023-01-04T10:37:50.694Z,1012.39
2023-01-04T10:38:50.719Z,1012.30
2023-01-04T10:39:50.687Z,1012.36
2023-01-04T10:40:50.679Z,1012.30
2023-01-04T10:41:50.639Z,1012.26
2023-01-04T10:42:50.669Z,1012.29
2023-01-04T10:44:11.427Z,1012.24
2023-01-04T10:44:51.636Z,1012.26
2023-01-04T10:45:50.591Z,1012.26
2023-01-04T10:46:50.634Z,1012.16
2023-01-04T10:47:50.566Z,1012.49
2023-01-04T10:48:50.566Z,1012.32
2023-01-04T10:49:50.569Z,1012.37
2023-01-04T10:50:50.535Z,1012.21
2023-01-04T10:51:50.533Z,1012.16
2023-01-04T10:52:50.629Z,1012.23
2023-01-04T10:53:50.512Z,1012.23
2023-01-04T10:54:50.538Z,1012.19
2023-01-04T10:56:23.605Z,1012.19
2023-01-04T10:56:51.467Z,1012.15
2023-01-04T10:57:50.465Z,1012.12
2023-01-04T10:58:50.458Z,1012.15
2023-01-04T10:59:50.444Z,1012.07
2023-01-04T11:00:50.510Z,1012.13
2023-01-04T11:01:50.685Z,1012.13
2023-01-04T11:02:50.537Z,1012.07
2023-01-04T11:03:50.468Z,1012.11
2023-01-04T11:04:50.418Z,1012.15
2023-01-04T11:05:50.381Z,1012.04
2023-01-04T11:06:50.371Z,1011.97
2023-01-04T11:07:50.355Z,1012.05
2023-01-04T11:08:50.329Z,1011.98
2023-01-04T11:09:50.329Z,1011.89
2023-01-04T11:10:50.340Z,1012.11
2023-01-04T11:11:50.305Z,1011.88
2023-01-04T11:12:50.308Z,1011.81
2023-01-04T11:13:50.276Z,1011.99
2023-01-04T11:14:50.292Z,1011.85
2023-01-04T11:15:50.248Z,1011.83
2023-01-04T11:16:50.363Z,1011.82
2023-01-04T11:17:51.232Z,1011.81
2023-01-04T11:18:50.232Z,1011.89
2023-01-04T11:19:50.204Z,1011.91
2023-01-04T11:20:50.219Z,1011.83
2023-01-04T11:21:50.184Z,1011.78
2023-01-04T11:22:50.293Z,1011.78
2023-01-04T11:23:50.155Z,1011.83
2023-01-04T11:25:24.580Z,1011.80
2023-01-04T11:25:55.908Z,1011.81
2023-01-04T11:26:51.164Z,1011.82
2023-01-04T11:27:50.116Z,1011.74
2023-01-04T11:28:50.104Z,1011.74
2023-01-04T11:29:50.109Z,1011.72
2023-01-04T11:30:57.982Z,1011.79
2023-01-04T11:31:50.167Z,1011.77
2023-01-04T11:32:50.224Z,1011.75
2023-01-04T11:33:50.059Z,1011.62
2023-01-04T11:34:50.051Z,1011.69
2023-01-04T11:35:50.045Z,1011.64
2023-01-04T11:36:50.039Z,1011.60
2023-01-04T11:37:50.001Z,1011.61
2023-01-04T11:38:49.998Z,1011.61
2023-01-04T11:39:49.991Z,1011.56
2023-01-04T11:40:49.976Z,1011.57
2023-01-04T11:41:49.957Z,1011.65
2023-01-04T11:42:50.086Z,1011.58
2023-01-04T11:43:49.949Z,1011.41
2023-01-04T11:44:49.933Z,1011.70
2023-01-04T11:45:51.581Z,1011.61
2023-01-04T11:46:49.915Z,1011.54
2023-01-04T11:47:49.918Z,1011.53
2023-01-04T11:48:49.888Z,1011.47
2023-01-04T11:49:49.881Z,1011.46
2023-01-04T11:50:50.020Z,1011.45
2023-01-04T11:51:49.846Z,1011.48
2023-01-04T11:52:49.839Z,1011.47
2023-01-04T11:53:49.836Z,1011.51
2023-01-04T11:54:49.821Z,1011.49
2023-01-04T11:56:01.951Z,1011.52
2023-01-04T11:56:49.780Z,1011.47
2023-01-04T11:57:49.790Z,1011.45
2023-01-04T11:58:49.792Z,1011.41
2023-01-04T11:59:49.774Z,1011.39
2023-01-04T12:00:49.799Z,1011.42
2023-01-04T12:01:49.906Z,1011.40
2023-01-04T12:03:05.169Z,1011.44
2023-01-04T12:03:50.719Z,1011.44
2023-01-04T12:04:49.687Z,1011.41
2023-01-04T12:05:49.700Z,1011.39
2023-01-04T12:06:49.667Z,1011.46
2023-01-04T12:07:50.669Z,1011.36
2023-01-04T12:08:49.652Z,1011.42
2023-01-04T12:09:49.647Z,1011.41
2023-01-04T12:10:49.733Z,1011.47
2023-01-04T12:11:49.633Z,1011.39
2023-01-04T12:12:49.600Z,1011.28
2023-01-04T12:13:49.607Z,1011.29
2023-01-04T12:14:49.603Z,1011.34
2023-01-04T12:15:49.588Z,1011.31
2023-01-04T12:16:49.553Z,1011.33
2023-01-04T12:17:49.553Z,1011.29
2023-01-04T12:18:49.548Z,1011.25
2023-01-04T12:19:49.531Z,1011.26
2023-01-04T12:20:49.509Z,1011.30
2023-01-04T12:21:49.533Z,1011.29
2023-01-04T12:22:49.539Z,1011.30
2023-01-04T12:23:49.485Z,1011.32
2023-01-04T12:24:50.344Z,1011.31
2023-01-04T12:25:49.459Z,1011.34
2023-01-04T12:26:49.465Z,1011.33
2023-01-04T12:27:49.448Z,1011.27
2023-01-04T12:28:49.423Z,1011.29
2023-01-04T12:29:49.410Z,1011.27
2023-01-04T12:30:49.544Z,1011.29
2023-01-04T12:31:57.941Z,1011.25
2023-01-04T12:32:49.377Z,1011.26
2023-01-04T12:33:49.379Z,1011.18
2023-01-04T12:34:49.352Z,1011.13
2023-01-04T12:35:49.345Z,1011.13
2023-01-04T12:36:49.332Z,1011.16
2023-01-04T12:37:49.594Z,1011.22
2023-01-04T12:38:49.308Z,1011.13
2023-01-04T12:39:49.301Z,1011.15
2023-01-04T12:40:50.315Z,1011.08
2023-01-04T12:41:49.277Z,1011.00
2023-01-04T12:42:49.287Z,1011.03
2023-01-04T12:43:49.252Z,1010.89
2023-01-04T12:44:49.238Z,1010.94
2023-01-04T12:45:49.282Z,1010.95
2023-01-04T12:46:49.277Z,1011.04
2023-01-04T12:47:49.223Z,1010.97
2023-01-04T12:48:49.209Z,1011.02
2023-01-04T12:49:49.187Z,1010.93
2023-01-04T12:50:59.253Z,1011.00
2023-01-04T12:52:12.891Z,1010.94
2023-01-04T12:53:50.144Z,1011.01
2023-01-04T12:54:49.135Z,1010.98
2023-01-04T12:55:49.131Z,1010.95
2023-01-04T12:56:49.104Z,1010.94
2023-01-04T12:57:49.125Z,1010.92
2023-01-04T12:59:24.097Z,1010.96
2023-01-04T12:59:50.088Z,1010.86
2023-01-04T13:00:49.063Z,1010.86
2023-01-04T13:01:49.309Z,1010.84
2023-01-04T13:02:49.224Z,1010.90
2023-01-04T13:03:49.211Z,1010.85
2023-01-04T13:04:49.033Z,1010.85
2023-01-04T13:05:57.516Z,1010.76
2023-01-04T13:06:50.009Z,1010.77
2023-01-04T13:07:48.994Z,1010.70
2023-01-04T13:08:48.981Z,1010.75
2023-01-04T13:09:49.955Z,1010.73
2023-01-04T13:10:48.982Z,1010.78
2023-01-04T13:11:48.939Z,1010.79
2023-01-04T13:12:51.314Z,1010.74
2023-01-04T13:13:48.926Z,1010.69
2023-01-04T13:14:48.915Z,1010.70
2023-01-04T13:15:48.905Z,1010.75
2023-01-04T13:16:48.930Z,1010.70
2023-01-04T13:17:48.928Z,1010.70
2023-01-04T13:18:48.990Z,1010.71
2023-01-04T13:19:48.847Z,1010.71
2023-01-04T13:20:48.834Z,1010.64
2023-01-04T13:21:48.846Z,1010.73
2023-01-04T13:22:48.812Z,1010.76
2023-01-04T13:23:48.827Z,1010.82
2023-01-04T13:24:48.784Z,1010.66
2023-01-04T13:25:48.789Z,1010.70
2023-01-04T13:26:48.776Z,1010.76
2023-01-04T13:27:48.768Z,1010.76
2023-01-04T13:28:51.261Z,1010.56
2023-01-04T13:29:52.898Z,1010.64
2023-01-04T13:30:48.744Z,1010.73
2023-01-04T13:31:48.790Z,1010.69
2023-01-04T13:33:24.345Z,1010.65
2023-01-04T13:33:49.713Z,1010.62
2023-01-04T13:34:48.690Z,1010.65
2023-01-04T13:35:48.677Z,1010.62
2023-01-04T13:36:48.664Z,1010.65
2023-01-04T13:37:48.655Z,1010.67
2023-01-04T13:38:48.662Z,1010.69
2023-01-04T13:39:48.619Z,1010.72
2023-01-04T13:40:49.484Z,1010.67
2023-01-04T13:41:48.606Z,1010.59
2023-01-04T13:42:48.605Z,1010.60
2023-01-04T13:43:48.594Z,1010.60
2023-01-04T13:45:49.587Z,1010.58
2023-01-04T13:46:48.597Z,1010.61
2023-01-04T13:47:48.530Z,1010.61
2023-01-04T13:48:48.531Z,1010.72
2023-01-04T13:49:48.515Z,1010.73
2023-01-04T13:50:48.513Z,1010.65
2023-01-04T13:51:48.495Z,1010.71
2023-01-04T13:53:03.652Z,1010.69
2023-01-04T13:53:49.475Z,1010.72
2023-01-04T13:54:48.457Z,1010.59
2023-01-04T13:55:48.452Z,1010.67
2023-01-04T13:56:55.225Z,1010.66
2023-01-04T13:57:49.412Z,1010.64
2023-01-04T13:58:48.416Z,1010.69
2023-01-04T13:59:48.397Z,1010.67
2023-01-04T14:00:48.397Z,1010.60
2023-01-04T14:01:48.502Z,1010.58
2023-01-04T14:02:48.690Z,1010.55
2023-01-04T14:03:48.439Z,1010.63
2023-01-04T14:04:48.332Z,1010.58
2023-01-04T14:05:48.350Z,1010.52
2023-01-04T14:06:48.342Z,1010.49
2023-01-04T14:07:48.321Z,1010.55
2023-01-04T14:08:48.311Z,1010.53
2023-01-04T14:09:48.290Z,1010.52
2023-01-04T14:10:48.261Z,1010.50
2023-01-04T14:11:48.269Z,1010.54
2023-01-04T14:12:48.256Z,1010.48
2023-01-04T14:13:48.249Z,1010.48
2023-01-04T14:14:48.221Z,1010.49
2023-01-04T14:15:48.216Z,1010.50
2023-01-04T14:16:48.420Z,1010.46
2023-01-04T14:17:48.745Z,1010.56
2023-01-04T14:18:48.198Z,1010.47
2023-01-04T14:19:48.273Z,1010.53
2023-01-04T14:20:48.164Z,1010.41
2023-01-04T14:21:48.154Z,1010.42
2023-01-04T14:22:48.147Z,1010.44
2023-01-04T14:23:48.133Z,1010.36
2023-01-04T14:25:49.233Z,1010.26
2023-01-04T14:26:48.091Z,1010.41
2023-01-04T14:27:48.071Z,1010.42
2023-01-04T14:28:50.115Z,1010.33
2023-01-04T14:29:48.050Z,1010.37
2023-01-04T14:30:48.118Z,1010.35
2023-01-04T14:31:48.154Z,1010.34
2023-01-04T14:32:48.028Z,1010.38
2023-01-04T14:33:48.034Z,1010.30
2023-01-04T14:34:48.973Z,1010.29
2023-01-04T14:35:49.933Z,1010.34
2023-01-04T14:36:47.989Z,1010.36
2023-01-04T14:37:47.971Z,1010.41
2023-01-04T14:38:47.996Z,1010.35
2023-01-04T14:39:47.934Z,1010.32
2023-01-04T14:40:47.951Z,1010.35
2023-01-04T14:41:47.924Z,1010.41
2023-01-04T14:42:48.909Z,1010.30
2023-01-04T14:43:47.922Z,1010.47
2023-01-04T14:44:47.885Z,1010.45
2023-01-04T14:45:47.886Z,1010.42
2023-01-04T14:46:48.089Z,1010.43
2023-01-04T14:47:47.849Z,1010.56
2023-01-04T14:48:48.871Z,1010.46
2023-01-04T14:49:47.824Z,1010.44
2023-01-04T14:50:47.804Z,1010.44
2023-01-04T14:51:47.832Z,1010.46
2023-01-04T14:52:47.800Z,1010.41
2023-01-04T14:53:47.808Z,1010.38
2023-01-04T14:54:47.791Z,1010.43
2023-01-04T14:55:47.751Z,1010.40
2023-01-04T14:56:47.736Z,1010.31
2023-01-04T14:57:47.746Z,1010.43
2023-01-04T14:58:47.736Z,1010.43
2023-01-04T14:59:47.721Z,1010.37
2023-01-04T15:00:47.729Z,1010.57
2023-01-04T15:01:47.827Z,1010.44
2023-01-04T15:02:47.883Z,1010.37
2023-01-04T15:03:47.778Z,1010.50
2023-01-04T15:04:47.661Z,1010.39
2023-01-04T15:05:47.639Z,1010.46
2023-01-04T15:06:47.636Z,1010.39
2023-01-04T15:07:47.640Z,1010.46
2023-01-04T15:08:47.617Z,1010.61
2023-01-04T15:09:47.609Z,1010.33
2023-01-04T15:10:47.596Z,1010.48
2023-01-04T15:11:47.579Z,1010.51
2023-01-04T15:12:47.557Z,1010.44
2023-01-04T15:13:47.582Z,1010.64
2023-01-04T15:14:47.532Z,1010.56
2023-01-04T15:15:47.564Z,1010.62
2023-01-04T15:16:47.505Z,1010.59
2023-01-04T15:17:47.509Z,1010.63
2023-01-04T15:18:47.503Z,1010.61
2023-01-04T15:20:03.966Z,1010.64
2023-01-04T15:20:47.464Z,1010.57
2023-01-04T15:21:49.822Z,1010.58
2023-01-04T15:22:47.456Z,1010.65
2023-01-04T15:23:47.444Z,1010.51
2023-01-04T15:24:47.432Z,1010.51
2023-01-04T15:25:47.421Z,1010.44
2023-01-04T15:26:47.421Z,1010.52
2023-01-04T15:27:48.398Z,1010.44
2023-01-04T15:28:47.386Z,1010.42
2023-01-04T15:29:47.376Z,1010.43
2023-01-04T15:30:47.353Z,1010.42
2023-01-04T15:31:47.467Z,1010.38
2023-01-04T15:32:47.341Z,1010.43
2023-01-04T15:33:47.328Z,1010.36
2023-01-04T15:34:47.319Z,1010.43
2023-01-04T15:35:47.304Z,1010.39
2023-01-04T15:36:47.295Z,1010.44
2023-01-04T15:37:47.287Z,1010.45
2023-01-04T15:38:47.272Z,1010.50
2023-01-04T15:39:47.264Z,1010.48
2023-01-04T15:40:47.249Z,1010.45
2023-01-04T15:41:47.281Z,1010.47
2023-01-04T15:42:47.245Z,1010.51
2023-01-04T15:43:47.200Z,1010.47
2023-01-04T15:44:47.213Z,1010.52
2023-01-04T15:45:47.176Z,1010.50
2023-01-04T15:46:47.297Z,1010.50
2023-01-04T15:47:47.153Z,1010.46
2023-01-04T15:48:47.157Z,1010.53
2023-01-04T15:49:47.156Z,1010.44
2023-01-04T15:50:47.123Z,1010.49
